sensor_id;sensor_type;location;lat;lon;timestamp;P1;durP1;ratioP1;P2;durP2;ratioP2
51292;SDS011;37377;45.186;9.778;2022-11-20T00:01:20;84.70;;;41.08;;
51292;SDS011;37377;45.186;9.778;2022-11-20T00:03:47;81.55;;;39.40;;
51292;SDS011;37377;45.186;9.778;2022-11-20T00:06:15;75.82;;;41.58;;
51292;SDS011;37377;45.186;9.778;2022-11-20T00:08:42;82.20;;;41.40;;
51292;SDS011;37377;45.186;9.778;2022-11-20T00:11:29;100.28;;;47.10;;
51292;SDS011;37377;45.186;9.778;2022-11-20T00:13:57;89.43;;;46.80;;
51292;SDS011;37377;45.186;9.778;2022-11-20T00:16:24;85.97;;;45.05;;
51292;SDS011;37377;45.186;9.778;2022-11-20T00:18:52;89.85;;;43.92;;
51292;SDS011;37377;45.186;9.778;2022-11-20T00:21:19;97.25;;;44.47;;
51292;SDS011;37377;45.186;9.778;2022-11-20T00:23:47;100.82;;;49.90;;
51292;SDS011;37377;45.186;9.778;2022-11-20T00:26:17;94.25;;;47.03;;
51292;SDS011;37377;45.186;9.778;2022-11-20T00:28:48;102.85;;;50.25;;
51292;SDS011;37377;45.186;9.778;2022-11-20T00:31:15;93.13;;;45.90;;
51292;SDS011;37377;45.186;9.778;2022-11-20T00:33:43;88.18;;;46.30;;
51292;SDS011;37377;45.186;9.778;2022-11-20T00:36:11;91.45;;;45.45;;
51292;SDS011;37377;45.186;9.778;2022-11-20T00:38:38;99.68;;;48.55;;
51292;SDS011;37377;45.186;9.778;2022-11-20T00:41:06;94.40;;;47.65;;
51292;SDS011;37377;45.186;9.778;2022-11-20T00:43:33;101.03;;;49.67;;
51292;SDS011;37377;45.186;9.778;2022-11-20T00:46:04;90.55;;;46.08;;
51292;SDS011;37377;45.186;9.778;2022-11-20T00:48:32;104.55;;;51.75;;
51292;SDS011;37377;45.186;9.778;2022-11-20T00:50:59;102.57;;;49.67;;
51292;SDS011;37377;45.186;9.778;2022-11-20T00:53:26;94.95;;;47.67;;
51292;SDS011;37377;45.186;9.778;2022-11-20T00:56:03;147.25;;;82.88;;
51292;SDS011;37377;45.186;9.778;2022-11-20T00:58:31;90.53;;;45.40;;
51292;SDS011;37377;45.186;9.778;2022-11-20T01:00:59;84.18;;;45.63;;
51292;SDS011;37377;45.186;9.778;2022-11-20T01:03:26;104.25;;;47.05;;
51292;SDS011;37377;45.186;9.778;2022-11-20T01:05:53;90.88;;;44.90;;
51292;SDS011;37377;45.186;9.778;2022-11-20T01:08:20;83.40;;;42.38;;
51292;SDS011;37377;45.186;9.778;2022-11-20T01:10:46;94.75;;;47.45;;
51292;SDS011;37377;45.186;9.778;2022-11-20T01:13:13;84.70;;;45.70;;
51292;SDS011;37377;45.186;9.778;2022-11-20T01:16:02;95.05;;;45.58;;
51292;SDS011;37377;45.186;9.778;2022-11-20T01:18:29;94.45;;;44.22;;
51292;SDS011;37377;45.186;9.778;2022-11-20T01:20:59;85.22;;;44.00;;
51292;SDS011;37377;45.186;9.778;2022-11-20T01:23:26;88.00;;;42.67;;
51292;SDS011;37377;45.186;9.778;2022-11-20T01:25:53;80.22;;;40.92;;
51292;SDS011;37377;45.186;9.778;2022-11-20T01:28:19;85.65;;;41.40;;
51292;SDS011;37377;45.186;9.778;2022-11-20T01:30:46;84.88;;;41.80;;
51292;SDS011;37377;45.186;9.778;2022-11-20T01:33:13;84.28;;;40.47;;
51292;SDS011;37377;45.186;9.778;2022-11-20T01:35:40;85.50;;;40.40;;
51292;SDS011;37377;45.186;9.778;2022-11-20T01:38:07;85.95;;;40.50;;
51292;SDS011;37377;45.186;9.778;2022-11-20T01:40:33;77.38;;;38.53;;
51292;SDS011;37377;45.186;9.778;2022-11-20T01:43:12;78.32;;;38.53;;
51292;SDS011;37377;45.186;9.778;2022-11-20T01:48:19;85.43;;;39.47;;
51292;SDS011;37377;45.186;9.778;2022-11-20T01:50:46;81.68;;;41.22;;
51292;SDS011;37377;45.186;9.778;2022-11-20T01:53:14;79.65;;;39.13;;
51292;SDS011;37377;45.186;9.778;2022-11-20T01:55:43;77.30;;;38.38;;
51292;SDS011;37377;45.186;9.778;2022-11-20T01:58:11;74.13;;;36.85;;
51292;SDS011;37377;45.186;9.778;2022-11-20T02:00:38;66.15;;;35.75;;
51292;SDS011;37377;45.186;9.778;2022-11-20T02:03:09;52.22;;;29.80;;
51292;SDS011;37377;45.186;9.778;2022-11-20T02:08:18;47.15;;;26.65;;
51292;SDS011;37377;45.186;9.778;2022-11-20T02:10:45;48.95;;;28.23;;
51292;SDS011;37377;45.186;9.778;2022-11-20T02:13:12;51.38;;;29.95;;
51292;SDS011;37377;45.186;9.778;2022-11-20T02:15:57;40.25;;;25.42;;
51292;SDS011;37377;45.186;9.778;2022-11-20T02:18:24;28.98;;;20.23;;
51292;SDS011;37377;45.186;9.778;2022-11-20T02:20:53;77.07;;;19.15;;
51292;SDS011;37377;45.186;9.778;2022-11-20T02:23:25;68.03;;;19.02;;
51292;SDS011;37377;45.186;9.778;2022-11-20T02:25:54;172.32;;;19.33;;
51292;SDS011;37377;45.186;9.778;2022-11-20T02:28:23;137.13;;;16.70;;
51292;SDS011;37377;45.186;9.778;2022-11-20T02:30:50;216.70;;;20.10;;
51292;SDS011;37377;45.186;9.778;2022-11-20T02:33:17;144.00;;;19.67;;
51292;SDS011;37377;45.186;9.778;2022-11-20T02:35:45;138.15;;;21.35;;
51292;SDS011;37377;45.186;9.778;2022-11-20T02:38:12;51.47;;;20.55;;
51292;SDS011;37377;45.186;9.778;2022-11-20T02:40:39;28.75;;;20.80;;
51292;SDS011;37377;45.186;9.778;2022-11-20T02:43:06;30.13;;;20.83;;
51292;SDS011;37377;45.186;9.778;2022-11-20T02:45:33;26.73;;;18.63;;
51292;SDS011;37377;45.186;9.778;2022-11-20T02:48:00;28.65;;;19.60;;
51292;SDS011;37377;45.186;9.778;2022-11-20T02:50:27;30.40;;;20.25;;
51292;SDS011;37377;45.186;9.778;2022-11-20T02:52:53;29.13;;;20.73;;
51292;SDS011;37377;45.186;9.778;2022-11-20T02:55:20;29.70;;;20.08;;
51292;SDS011;37377;45.186;9.778;2022-11-20T02:57:47;31.20;;;20.45;;
51292;SDS011;37377;45.186;9.778;2022-11-20T03:00:14;32.78;;;21.85;;
51292;SDS011;37377;45.186;9.778;2022-11-20T03:02:40;33.75;;;21.35;;
51292;SDS011;37377;45.186;9.778;2022-11-20T03:05:07;35.03;;;21.15;;
51292;SDS011;37377;45.186;9.778;2022-11-20T03:07:34;37.70;;;22.33;;
51292;SDS011;37377;45.186;9.778;2022-11-20T03:10:01;31.48;;;21.10;;
51292;SDS011;37377;45.186;9.778;2022-11-20T03:12:28;30.15;;;22.15;;
51292;SDS011;37377;45.186;9.778;2022-11-20T03:14:54;34.30;;;22.58;;
51292;SDS011;37377;45.186;9.778;2022-11-20T03:17:22;37.85;;;23.02;;
51292;SDS011;37377;45.186;9.778;2022-11-20T03:19:48;43.08;;;23.00;;
51292;SDS011;37377;45.186;9.778;2022-11-20T03:22:15;33.83;;;22.30;;
51292;SDS011;37377;45.186;9.778;2022-11-20T03:24:42;38.50;;;22.80;;
51292;SDS011;37377;45.186;9.778;2022-11-20T03:27:08;32.47;;;21.20;;
51292;SDS011;37377;45.186;9.778;2022-11-20T03:29:35;34.75;;;20.83;;
51292;SDS011;37377;45.186;9.778;2022-11-20T03:32:02;38.72;;;22.08;;
51292;SDS011;37377;45.186;9.778;2022-11-20T03:34:28;33.83;;;20.80;;
51292;SDS011;37377;45.186;9.778;2022-11-20T03:36:55;37.08;;;21.73;;
51292;SDS011;37377;45.186;9.778;2022-11-20T03:39:22;37.42;;;22.10;;
51292;SDS011;37377;45.186;9.778;2022-11-20T03:41:49;34.78;;;21.80;;
51292;SDS011;37377;45.186;9.778;2022-11-20T03:44:16;41.47;;;23.85;;
51292;SDS011;37377;45.186;9.778;2022-11-20T03:46:43;41.40;;;26.08;;
51292;SDS011;37377;45.186;9.778;2022-11-20T03:49:09;46.33;;;27.25;;
51292;SDS011;37377;45.186;9.778;2022-11-20T03:51:36;44.33;;;26.52;;
51292;SDS011;37377;45.186;9.778;2022-11-20T03:54:04;39.22;;;24.35;;
51292;SDS011;37377;45.186;9.778;2022-11-20T03:56:32;44.20;;;25.67;;
51292;SDS011;37377;45.186;9.778;2022-11-20T03:59:00;57.25;;;28.63;;
51292;SDS011;37377;45.186;9.778;2022-11-20T04:01:28;51.92;;;28.48;;
51292;SDS011;37377;45.186;9.778;2022-11-20T04:03:56;53.78;;;28.58;;
51292;SDS011;37377;45.186;9.778;2022-11-20T04:06:24;62.35;;;30.95;;
51292;SDS011;37377;45.186;9.778;2022-11-20T04:08:53;66.60;;;33.35;;
51292;SDS011;37377;45.186;9.778;2022-11-20T04:11:21;61.85;;;34.90;;
51292;SDS011;37377;45.186;9.778;2022-11-20T04:13:49;74.90;;;37.47;;
51292;SDS011;37377;45.186;9.778;2022-11-20T04:16:17;75.00;;;36.35;;
51292;SDS011;37377;45.186;9.778;2022-11-20T04:18:44;74.32;;;38.92;;
51292;SDS011;37377;45.186;9.778;2022-11-20T04:21:11;68.68;;;36.85;;
51292;SDS011;37377;45.186;9.778;2022-11-20T04:23:38;78.38;;;35.97;;
51292;SDS011;37377;45.186;9.778;2022-11-20T04:26:06;85.78;;;32.15;;
51292;SDS011;37377;45.186;9.778;2022-11-20T04:28:33;203.32;;;26.25;;
51292;SDS011;37377;45.186;9.778;2022-11-20T04:31:07;56.35;;;22.20;;
51292;SDS011;37377;45.186;9.778;2022-11-20T04:33:35;116.95;;;22.50;;
51292;SDS011;37377;45.186;9.778;2022-11-20T04:36:06;232.30;;;24.23;;
51292;SDS011;37377;45.186;9.778;2022-11-20T04:38:33;220.73;;;23.20;;
51292;SDS011;37377;45.186;9.778;2022-11-20T04:41:01;127.63;;;22.77;;
51292;SDS011;37377;45.186;9.778;2022-11-20T04:43:28;146.68;;;22.02;;
51292;SDS011;37377;45.186;9.778;2022-11-20T04:45:55;132.10;;;21.92;;
51292;SDS011;37377;45.186;9.778;2022-11-20T04:48:23;131.50;;;20.17;;
51292;SDS011;37377;45.186;9.778;2022-11-20T04:50:50;136.15;;;19.02;;
51292;SDS011;37377;45.186;9.778;2022-11-20T04:53:17;125.07;;;19.30;;
51292;SDS011;37377;45.186;9.778;2022-11-20T04:55:44;110.80;;;19.20;;
51292;SDS011;37377;45.186;9.778;2022-11-20T04:58:11;78.43;;;20.33;;
51292;SDS011;37377;45.186;9.778;2022-11-20T05:00:38;100.47;;;20.00;;
51292;SDS011;37377;45.186;9.778;2022-11-20T05:03:05;57.05;;;18.45;;
51292;SDS011;37377;45.186;9.778;2022-11-20T05:05:33;55.78;;;17.98;;
51292;SDS011;37377;45.186;9.778;2022-11-20T05:08:00;55.28;;;19.27;;
51292;SDS011;37377;45.186;9.778;2022-11-20T05:10:27;37.85;;;17.80;;
51292;SDS011;37377;45.186;9.778;2022-11-20T05:12:54;32.67;;;18.98;;
51292;SDS011;37377;45.186;9.778;2022-11-20T05:15:21;69.18;;;19.65;;
51292;SDS011;37377;45.186;9.778;2022-11-20T05:17:48;34.38;;;19.05;;
51292;SDS011;37377;45.186;9.778;2022-11-20T05:20:15;39.70;;;19.13;;
51292;SDS011;37377;45.186;9.778;2022-11-20T05:22:42;46.90;;;20.80;;
51292;SDS011;37377;45.186;9.778;2022-11-20T05:25:09;50.00;;;21.67;;
51292;SDS011;37377;45.186;9.778;2022-11-20T05:27:36;32.45;;;20.55;;
51292;SDS011;37377;45.186;9.778;2022-11-20T05:30:04;33.17;;;21.60;;
51292;SDS011;37377;45.186;9.778;2022-11-20T05:32:32;34.33;;;21.95;;
51292;SDS011;37377;45.186;9.778;2022-11-20T05:34:58;41.58;;;22.67;;
51292;SDS011;37377;45.186;9.778;2022-11-20T05:37:25;33.10;;;23.52;;
51292;SDS011;37377;45.186;9.778;2022-11-20T05:39:52;43.70;;;20.98;;
51292;SDS011;37377;45.186;9.778;2022-11-20T05:42:18;41.65;;;22.63;;
51292;SDS011;37377;45.186;9.778;2022-11-20T05:44:58;39.00;;;20.25;;
51292;SDS011;37377;45.186;9.778;2022-11-20T05:47:25;30.25;;;21.00;;
51292;SDS011;37377;45.186;9.778;2022-11-20T05:49:52;33.67;;;20.67;;
51292;SDS011;37377;45.186;9.778;2022-11-20T05:52:19;40.67;;;20.48;;
51292;SDS011;37377;45.186;9.778;2022-11-20T05:54:48;31.65;;;21.25;;
51292;SDS011;37377;45.186;9.778;2022-11-20T05:57:15;37.60;;;20.80;;
51292;SDS011;37377;45.186;9.778;2022-11-20T05:59:41;29.52;;;21.33;;
51292;SDS011;37377;45.186;9.778;2022-11-20T06:02:08;30.77;;;20.70;;
51292;SDS011;37377;45.186;9.778;2022-11-20T06:04:35;30.98;;;22.67;;
51292;SDS011;37377;45.186;9.778;2022-11-20T06:07:01;28.65;;;22.02;;
51292;SDS011;37377;45.186;9.778;2022-11-20T06:09:28;70.32;;;20.95;;
51292;SDS011;37377;45.186;9.778;2022-11-20T06:11:55;31.45;;;20.52;;
51292;SDS011;37377;45.186;9.778;2022-11-20T06:14:22;28.90;;;20.52;;
51292;SDS011;37377;45.186;9.778;2022-11-20T06:16:49;28.60;;;20.83;;
51292;SDS011;37377;45.186;9.778;2022-11-20T06:19:15;34.65;;;21.65;;
51292;SDS011;37377;45.186;9.778;2022-11-20T06:21:42;43.05;;;23.00;;
51292;SDS011;37377;45.186;9.778;2022-11-20T06:24:09;49.22;;;21.65;;
51292;SDS011;37377;45.186;9.778;2022-11-20T06:26:36;36.60;;;22.77;;
51292;SDS011;37377;45.186;9.778;2022-11-20T06:29:03;34.55;;;20.77;;
51292;SDS011;37377;45.186;9.778;2022-11-20T06:31:30;33.33;;;19.10;;
51292;SDS011;37377;45.186;9.778;2022-11-20T06:34:04;31.25;;;17.75;;
51292;SDS011;37377;45.186;9.778;2022-11-20T06:36:32;24.95;;;19.02;;
51292;SDS011;37377;45.186;9.778;2022-11-20T06:39:00;43.50;;;20.63;;
51292;SDS011;37377;45.186;9.778;2022-11-20T06:41:26;39.53;;;20.90;;
51292;SDS011;37377;45.186;9.778;2022-11-20T06:43:54;24.75;;;16.88;;
51292;SDS011;37377;45.186;9.778;2022-11-20T06:46:21;25.73;;;19.15;;
51292;SDS011;37377;45.186;9.778;2022-11-20T06:48:48;36.53;;;21.75;;
51292;SDS011;37377;45.186;9.778;2022-11-20T06:51:26;31.65;;;20.83;;
51292;SDS011;37377;45.186;9.778;2022-11-20T06:53:56;30.90;;;20.90;;
51292;SDS011;37377;45.186;9.778;2022-11-20T06:56:23;25.10;;;19.33;;
51292;SDS011;37377;45.186;9.778;2022-11-20T06:58:53;24.23;;;17.65;;
51292;SDS011;37377;45.186;9.778;2022-11-20T07:01:28;22.83;;;16.88;;
51292;SDS011;37377;45.186;9.778;2022-11-20T07:03:58;19.60;;;15.82;;
51292;SDS011;37377;45.186;9.778;2022-11-20T07:06:30;19.80;;;15.88;;
51292;SDS011;37377;45.186;9.778;2022-11-20T07:09:03;21.90;;;15.38;;
51292;SDS011;37377;45.186;9.778;2022-11-20T07:11:36;17.52;;;15.18;;
51292;SDS011;37377;45.186;9.778;2022-11-20T07:14:13;16.92;;;15.00;;
51292;SDS011;37377;45.186;9.778;2022-11-20T07:16:41;16.67;;;14.93;;
51292;SDS011;37377;45.186;9.778;2022-11-20T07:19:09;22.92;;;15.02;;
51292;SDS011;37377;45.186;9.778;2022-11-20T07:21:38;15.95;;;14.25;;
51292;SDS011;37377;45.186;9.778;2022-11-20T07:24:10;18.20;;;14.45;;
51292;SDS011;37377;45.186;9.778;2022-11-20T07:26:39;15.00;;;13.48;;
51292;SDS011;37377;45.186;9.778;2022-11-20T07:29:05;15.75;;;14.10;;
51292;SDS011;37377;45.186;9.778;2022-11-20T07:31:36;16.35;;;13.48;;
51292;SDS011;37377;45.186;9.778;2022-11-20T07:34:08;18.77;;;13.60;;
51292;SDS011;37377;45.186;9.778;2022-11-20T07:36:38;15.00;;;12.52;;
51292;SDS011;37377;45.186;9.778;2022-11-20T07:39:08;18.33;;;13.23;;
51292;SDS011;37377;45.186;9.778;2022-11-20T07:41:39;15.07;;;13.10;;
51292;SDS011;37377;45.186;9.778;2022-11-20T07:44:18;20.83;;;14.80;;
51292;SDS011;37377;45.186;9.778;2022-11-20T07:46:50;19.23;;;13.27;;
51292;SDS011;37377;45.186;9.778;2022-11-20T07:49:19;19.67;;;14.05;;
51292;SDS011;37377;45.186;9.778;2022-11-20T07:51:52;22.25;;;15.15;;
51292;SDS011;37377;45.186;9.778;2022-11-20T07:54:32;18.92;;;14.02;;
51292;SDS011;37377;45.186;9.778;2022-11-20T07:57:05;19.48;;;14.18;;
51292;SDS011;37377;45.186;9.778;2022-11-20T07:59:34;22.55;;;14.82;;
51292;SDS011;37377;45.186;9.778;2022-11-20T08:02:03;18.52;;;14.45;;
51292;SDS011;37377;45.186;9.778;2022-11-20T08:04:31;23.83;;;15.05;;
51292;SDS011;37377;45.186;9.778;2022-11-20T08:06:59;22.80;;;14.77;;
51292;SDS011;37377;45.186;9.778;2022-11-20T08:09:33;21.98;;;16.33;;
51292;SDS011;37377;45.186;9.778;2022-11-20T08:12:28;25.40;;;17.17;;
51292;SDS011;37377;45.186;9.778;2022-11-20T08:15:17;27.25;;;18.65;;
51292;SDS011;37377;45.186;9.778;2022-11-20T08:17:58;39.47;;;25.80;;
51292;SDS011;37377;45.186;9.778;2022-11-20T08:21:35;26.42;;;16.98;;
51292;SDS011;37377;45.186;9.778;2022-11-20T08:25:21;27.30;;;17.93;;
51292;SDS011;37377;45.186;9.778;2022-11-20T08:28:18;27.30;;;18.08;;
51292;SDS011;37377;45.186;9.778;2022-11-20T08:31:15;26.67;;;17.77;;
51292;SDS011;37377;45.186;9.778;2022-11-20T08:38:27;23.55;;;16.88;;
51292;SDS011;37377;45.186;9.778;2022-11-20T08:42:30;26.30;;;17.02;;
51292;SDS011;37377;45.186;9.778;2022-11-20T08:46:18;26.15;;;18.48;;
51292;SDS011;37377;45.186;9.778;2022-11-20T08:50:12;26.90;;;19.05;;
51292;SDS011;37377;45.186;9.778;2022-11-20T08:58:57;28.83;;;19.10;;
51292;SDS011;37377;45.186;9.778;2022-11-20T09:02:51;28.42;;;19.83;;
51292;SDS011;37377;45.186;9.778;2022-11-20T09:05:59;33.03;;;21.85;;
51292;SDS011;37377;45.186;9.778;2022-11-20T09:08:58;28.77;;;19.33;;
51292;SDS011;37377;45.186;9.778;2022-11-20T09:11:47;28.42;;;19.73;;
51292;SDS011;37377;45.186;9.778;2022-11-20T09:14:22;29.00;;;20.80;;
51292;SDS011;37377;45.186;9.778;2022-11-20T09:16:55;30.00;;;20.20;;
51292;SDS011;37377;45.186;9.778;2022-11-20T09:19:23;25.52;;;18.88;;
51292;SDS011;37377;45.186;9.778;2022-11-20T09:22:08;26.70;;;19.38;;
51292;SDS011;37377;45.186;9.778;2022-11-20T09:24:35;31.92;;;19.98;;
51292;SDS011;37377;45.186;9.778;2022-11-20T09:27:03;28.15;;;19.45;;
51292;SDS011;37377;45.186;9.778;2022-11-20T09:29:36;33.15;;;20.92;;
51292;SDS011;37377;45.186;9.778;2022-11-20T09:32:03;30.67;;;20.92;;
51292;SDS011;37377;45.186;9.778;2022-11-20T09:34:33;26.02;;;19.77;;
51292;SDS011;37377;45.186;9.778;2022-11-20T09:37:06;36.38;;;20.40;;
51292;SDS011;37377;45.186;9.778;2022-11-20T09:39:36;29.85;;;20.23;;
51292;SDS011;37377;45.186;9.778;2022-11-20T09:47:36;27.95;;;19.35;;
51292;SDS011;37377;45.186;9.778;2022-11-20T09:50:19;29.95;;;19.40;;
51292;SDS011;37377;45.186;9.778;2022-11-20T09:55:51;28.02;;;20.40;;
51292;SDS011;37377;45.186;9.778;2022-11-20T10:01:31;27.10;;;18.50;;
51292;SDS011;37377;45.186;9.778;2022-11-20T10:04:21;27.40;;;18.33;;
51292;SDS011;37377;45.186;9.778;2022-11-20T10:09:43;31.80;;;21.00;;
51292;SDS011;37377;45.186;9.778;2022-11-20T10:18:36;32.33;;;21.70;;
51292;SDS011;37377;45.186;9.778;2022-11-20T10:37:17;36.55;;;23.75;;
51292;SDS011;37377;45.186;9.778;2022-11-20T10:42:34;32.65;;;23.67;;
51292;SDS011;37377;45.186;9.778;2022-11-20T10:45:38;35.30;;;24.88;;
51292;SDS011;37377;45.186;9.778;2022-11-20T10:50:43;30.40;;;23.42;;
51292;SDS011;37377;45.186;9.778;2022-11-20T10:53:21;31.88;;;23.10;;
51292;SDS011;37377;45.186;9.778;2022-11-20T10:55:57;31.95;;;23.60;;
51292;SDS011;37377;45.186;9.778;2022-11-20T11:01:21;34.08;;;25.02;;
51292;SDS011;37377;45.186;9.778;2022-11-20T11:03:55;36.90;;;24.70;;
51292;SDS011;37377;45.186;9.778;2022-11-20T11:08:59;36.10;;;25.35;;
51292;SDS011;37377;45.186;9.778;2022-11-20T11:11:37;37.78;;;26.38;;
51292;SDS011;37377;45.186;9.778;2022-11-20T11:16:44;37.90;;;27.55;;
51292;SDS011;37377;45.186;9.778;2022-11-20T11:19:18;37.10;;;26.35;;
51292;SDS011;37377;45.186;9.778;2022-11-20T11:21:47;40.22;;;28.00;;
51292;SDS011;37377;45.186;9.778;2022-11-20T11:24:27;43.28;;;28.00;;
51292;SDS011;37377;45.186;9.778;2022-11-20T11:27:13;40.03;;;27.83;;
51292;SDS011;37377;45.186;9.778;2022-11-20T11:29:46;38.35;;;28.13;;
51292;SDS011;37377;45.186;9.778;2022-11-20T11:32:26;43.03;;;28.92;;
51292;SDS011;37377;45.186;9.778;2022-11-20T11:35:03;41.53;;;28.67;;
51292;SDS011;37377;45.186;9.778;2022-11-20T11:37:36;42.28;;;28.65;;
51292;SDS011;37377;45.186;9.778;2022-11-20T11:40:04;40.17;;;28.40;;
51292;SDS011;37377;45.186;9.778;2022-11-20T11:42:54;39.17;;;28.02;;
51292;SDS011;37377;45.186;9.778;2022-11-20T11:45:26;41.92;;;28.05;;
51292;SDS011;37377;45.186;9.778;2022-11-20T11:47:53;39.25;;;27.08;;
51292;SDS011;37377;45.186;9.778;2022-11-20T11:50:25;44.80;;;29.23;;
51292;SDS011;37377;45.186;9.778;2022-11-20T11:53:13;40.90;;;28.40;;
51292;SDS011;37377;45.186;9.778;2022-11-20T11:56:12;39.78;;;28.17;;
51292;SDS011;37377;45.186;9.778;2022-11-20T11:58:44;39.45;;;27.65;;
51292;SDS011;37377;45.186;9.778;2022-11-20T12:01:27;48.58;;;28.65;;
51292;SDS011;37377;45.186;9.778;2022-11-20T12:06:48;34.47;;;25.25;;
51292;SDS011;37377;45.186;9.778;2022-11-20T12:09:18;36.47;;;25.52;;
51292;SDS011;37377;45.186;9.778;2022-11-20T12:12:35;36.15;;;26.88;;
51292;SDS011;37377;45.186;9.778;2022-11-20T12:14:53;38.70;;;23.73;;
51292;SDS011;37377;45.186;9.778;2022-11-20T12:17:32;34.17;;;23.45;;
51292;SDS011;37377;45.186;9.778;2022-11-20T12:20:24;34.43;;;24.80;;
51292;SDS011;37377;45.186;9.778;2022-11-20T12:25:31;33.42;;;24.35;;
51292;SDS011;37377;45.186;9.778;2022-11-20T12:33:30;33.90;;;24.67;;
51292;SDS011;37377;45.186;9.778;2022-11-20T12:39:07;31.88;;;23.38;;
51292;SDS011;37377;45.186;9.778;2022-11-20T12:44:51;38.17;;;24.08;;
51292;SDS011;37377;45.186;9.778;2022-11-20T12:47:43;40.03;;;24.67;;
51292;SDS011;37377;45.186;9.778;2022-11-20T12:53:25;32.95;;;23.17;;
51292;SDS011;37377;45.186;9.778;2022-11-20T12:58:45;39.25;;;25.52;;
51292;SDS011;37377;45.186;9.778;2022-11-20T13:01:40;36.30;;;26.10;;
51292;SDS011;37377;45.186;9.778;2022-11-20T13:07:18;39.15;;;25.23;;
51292;SDS011;37377;45.186;9.778;2022-11-20T13:09:49;35.05;;;24.02;;
51292;SDS011;37377;45.186;9.778;2022-11-20T13:20:16;30.58;;;23.15;;
51292;SDS011;37377;45.186;9.778;2022-11-20T13:22:50;31.83;;;23.38;;
51292;SDS011;37377;45.186;9.778;2022-11-20T13:27:59;36.00;;;24.48;;
51292;SDS011;37377;45.186;9.778;2022-11-20T13:30:29;28.63;;;22.65;;
51292;SDS011;37377;45.186;9.778;2022-11-20T13:33:04;31.98;;;22.73;;
51292;SDS011;37377;45.186;9.778;2022-11-20T13:35:37;31.75;;;23.27;;
51292;SDS011;37377;45.186;9.778;2022-11-20T13:38:22;32.20;;;23.38;;
51292;SDS011;37377;45.186;9.778;2022-11-20T13:40:59;32.63;;;22.92;;
51292;SDS011;37377;45.186;9.778;2022-11-20T13:43:49;32.25;;;22.95;;
51292;SDS011;37377;45.186;9.778;2022-11-20T13:46:17;33.80;;;22.58;;
51292;SDS011;37377;45.186;9.778;2022-11-20T13:49:21;31.77;;;24.08;;
51292;SDS011;37377;45.186;9.778;2022-11-20T13:54:42;27.45;;;21.45;;
51292;SDS011;37377;45.186;9.778;2022-11-20T13:57:39;33.38;;;22.70;;
51292;SDS011;37377;45.186;9.778;2022-11-20T14:00:12;34.17;;;23.17;;
51292;SDS011;37377;45.186;9.778;2022-11-20T14:02:43;34.67;;;23.27;;
51292;SDS011;37377;45.186;9.778;2022-11-20T14:05:20;33.08;;;22.83;;
51292;SDS011;37377;45.186;9.778;2022-11-20T14:07:52;34.40;;;23.00;;
51292;SDS011;37377;45.186;9.778;2022-11-20T14:10:26;31.33;;;23.60;;
51292;SDS011;37377;45.186;9.778;2022-11-20T14:13:10;31.85;;;22.80;;
51292;SDS011;37377;45.186;9.778;2022-11-20T14:15:47;28.70;;;21.90;;
51292;SDS011;37377;45.186;9.778;2022-11-20T14:18:31;31.63;;;22.52;;
51292;SDS011;37377;45.186;9.778;2022-11-20T14:21:20;27.15;;;21.15;;
51292;SDS011;37377;45.186;9.778;2022-11-20T14:23:47;32.95;;;21.10;;
51292;SDS011;37377;45.186;9.778;2022-11-20T14:26:19;25.63;;;21.02;;
51292;SDS011;37377;45.186;9.778;2022-11-20T14:28:49;26.70;;;20.45;;
51292;SDS011;37377;45.186;9.778;2022-11-20T14:31:26;28.55;;;20.60;;
51292;SDS011;37377;45.186;9.778;2022-11-20T14:34:01;30.38;;;20.88;;
51292;SDS011;37377;45.186;9.778;2022-11-20T14:36:35;32.92;;;20.67;;
51292;SDS011;37377;45.186;9.778;2022-11-20T14:39:02;30.85;;;20.98;;
51292;SDS011;37377;45.186;9.778;2022-11-20T14:41:32;24.77;;;19.70;;
51292;SDS011;37377;45.186;9.778;2022-11-20T14:44:02;29.05;;;20.00;;
51292;SDS011;37377;45.186;9.778;2022-11-20T14:46:37;30.52;;;20.88;;
51292;SDS011;37377;45.186;9.778;2022-11-20T14:49:30;29.83;;;20.17;;
51292;SDS011;37377;45.186;9.778;2022-11-20T14:52:02;27.73;;;20.42;;
51292;SDS011;37377;45.186;9.778;2022-11-20T14:54:43;30.80;;;20.88;;
51292;SDS011;37377;45.186;9.778;2022-11-20T14:57:28;25.35;;;20.02;;
51292;SDS011;37377;45.186;9.778;2022-11-20T15:02:46;32.47;;;21.55;;
51292;SDS011;37377;45.186;9.778;2022-11-20T15:07:47;32.22;;;20.92;;
51292;SDS011;37377;45.186;9.778;2022-11-20T15:10:25;30.75;;;22.75;;
51292;SDS011;37377;45.186;9.778;2022-11-20T15:13:03;32.70;;;22.80;;
51292;SDS011;37377;45.186;9.778;2022-11-20T15:15:46;30.63;;;22.05;;
51292;SDS011;37377;45.186;9.778;2022-11-20T15:18:21;28.52;;;21.35;;
51292;SDS011;37377;45.186;9.778;2022-11-20T15:20:52;34.05;;;22.65;;
51292;SDS011;37377;45.186;9.778;2022-11-20T15:23:20;33.30;;;22.23;;
51292;SDS011;37377;45.186;9.778;2022-11-20T15:25:47;37.35;;;24.95;;
51292;SDS011;37377;45.186;9.778;2022-11-20T15:28:19;36.95;;;24.92;;
51292;SDS011;37377;45.186;9.778;2022-11-20T15:30:46;39.63;;;26.98;;
51292;SDS011;37377;45.186;9.778;2022-11-20T15:33:14;49.03;;;30.88;;
51292;SDS011;37377;45.186;9.778;2022-11-20T15:35:42;44.55;;;28.73;;
51292;SDS011;37377;45.186;9.778;2022-11-20T15:38:09;41.78;;;26.55;;
51292;SDS011;37377;45.186;9.778;2022-11-20T15:40:36;38.03;;;25.95;;
51292;SDS011;37377;45.186;9.778;2022-11-20T15:43:06;42.88;;;27.98;;
51292;SDS011;37377;45.186;9.778;2022-11-20T15:46:03;42.42;;;25.83;;
51292;SDS011;37377;45.186;9.778;2022-11-20T15:48:43;40.47;;;25.50;;
51292;SDS011;37377;45.186;9.778;2022-11-20T15:51:24;43.42;;;26.35;;
51292;SDS011;37377;45.186;9.778;2022-11-20T15:54:01;44.53;;;28.13;;
51292;SDS011;37377;45.186;9.778;2022-11-20T15:56:40;57.03;;;29.52;;
51292;SDS011;37377;45.186;9.778;2022-11-20T15:59:19;59.13;;;34.95;;
51292;SDS011;37377;45.186;9.778;2022-11-20T16:01:53;60.80;;;34.20;;
51292;SDS011;37377;45.186;9.778;2022-11-20T16:04:24;43.55;;;28.25;;
51292;SDS011;37377;45.186;9.778;2022-11-20T16:06:57;37.90;;;26.17;;
51292;SDS011;37377;45.186;9.778;2022-11-20T16:09:24;38.72;;;26.00;;
51292;SDS011;37377;45.186;9.778;2022-11-20T16:11:51;55.60;;;33.08;;
51292;SDS011;37377;45.186;9.778;2022-11-20T16:14:18;50.42;;;32.80;;
51292;SDS011;37377;45.186;9.778;2022-11-20T16:17:03;50.88;;;29.00;;
51292;SDS011;37377;45.186;9.778;2022-11-20T16:19:31;43.55;;;25.90;;
51292;SDS011;37377;45.186;9.778;2022-11-20T16:22:00;41.65;;;24.65;;
51292;SDS011;37377;45.186;9.778;2022-11-20T16:24:29;42.53;;;24.42;;
51292;SDS011;37377;45.186;9.778;2022-11-20T16:26:58;70.40;;;35.72;;
51292;SDS011;37377;45.186;9.778;2022-11-20T16:29:25;43.30;;;26.77;;
51292;SDS011;37377;45.186;9.778;2022-11-20T16:31:54;41.10;;;27.77;;
51292;SDS011;37377;45.186;9.778;2022-11-20T16:34:21;43.58;;;27.08;;
51292;SDS011;37377;45.186;9.778;2022-11-20T16:36:48;50.50;;;29.30;;
51292;SDS011;37377;45.186;9.778;2022-11-20T16:39:14;47.13;;;29.58;;
51292;SDS011;37377;45.186;9.778;2022-11-20T16:41:49;47.70;;;30.60;;
51292;SDS011;37377;45.186;9.778;2022-11-20T16:44:16;45.13;;;29.17;;
51292;SDS011;37377;45.186;9.778;2022-11-20T16:46:43;48.15;;;28.33;;